Portada
METAR-TAF:

METAR-TAF

Aeroports :

Santa Caterina, Egipte

latitud: 28-41-07N, longitud: 034-03-45E, altitud: 1331 m

Observació

L'informe es va fer fa 48 minuts, a les 16:00 UTC
Vent 5 kt del Est/Nord-Est
Temperatura 21°C
Humitat 20%
Pressió 1027 hPa
Visibilitat 10 km o més
sense núvols per sota de 1500 mi sense presència de cumulonimbus.

METAR: HESC 271600Z 06005KT CAVOK 21/M03 Q1027 NOSIG

Hora: 18:48 (16:48 UTC)

Pronòstic

L'informe es va fer fa 5 hores i 48 minuts, a les 11:00 UTC
Pronòstic vàlid del 27 a les 12 UTC al 28 a les 18 UTC
Vent 8 kt del Nord
Visibilitat 10 km o més
sense núvols per sota de 1500 mi sense presència de cumulonimbus.

TAF: HESC 271100Z 2712/2818 35008KT CAVOK

Observacions i pronòstics meteorològics de més de 4000 aeroports (METAR i TAF).

Les estacions disponibles són els punts grocs i vermells al mapa.

Posi el ratolí al punt desitjat per veure el nom de l'estació.

Feu clic per veure les observacions i els pronòstics meteorològics.

Per canviar el mapa: feu clic els botons verds amb una creu de color negre per apropar; al botó verd amb un guió per allunyar la imatge; o en les fletxes verdes per a mapes adjacents.


METAR-TAF: